createdAt,value
2022-11-28T00:02:17.028Z,4.94
2022-11-28T00:05:18.660Z,4.98
2022-11-28T00:08:00.453Z,4.98
2022-11-28T00:10:42.608Z,4.99
2022-11-28T00:13:23.275Z,5.04
2022-11-28T00:16:04.116Z,5.03
2022-11-28T00:18:44.496Z,4.97
2022-11-28T00:21:24.389Z,5.01
2022-11-28T00:24:06.670Z,4.99
2022-11-28T00:26:47.124Z,5.06
2022-11-28T00:29:26.963Z,5.07
2022-11-28T00:32:06.959Z,5.09
2022-11-28T00:34:50.147Z,5.07
2022-11-28T00:37:33.144Z,5.10
2022-11-28T00:40:14.148Z,5.12
2022-11-28T00:42:55.978Z,5.14
2022-11-28T00:45:37.047Z,5.20
2022-11-28T00:48:18.429Z,5.18
2022-11-28T00:51:05.608Z,5.22
2022-11-28T00:53:47.860Z,5.21
2022-11-28T00:56:29.610Z,5.22
2022-11-28T00:59:13.786Z,5.27
2022-11-28T01:01:55.004Z,5.31
2022-11-28T01:04:34.891Z,5.34
2022-11-28T01:07:16.350Z,5.32
2022-11-28T01:09:57.705Z,5.34
2022-11-28T01:12:39.177Z,5.37
2022-11-28T01:15:18.527Z,5.32
2022-11-28T01:18:01.213Z,5.28
2022-11-28T01:20:51.692Z,5.25
2022-11-28T01:23:33.000Z,5.19
2022-11-28T01:26:18.912Z,5.16
2022-11-28T01:28:56.944Z,5.17
2022-11-28T01:31:37.231Z,5.17
2022-11-28T01:34:19.100Z,5.19
2022-11-28T01:37:00.056Z,5.18
2022-11-28T01:39:39.413Z,5.23
2022-11-28T01:42:20.053Z,5.24
2022-11-28T01:45:06.101Z,5.21
2022-11-28T01:47:47.175Z,5.19
2022-11-28T01:50:41.980Z,5.20
2022-11-28T01:53:25.382Z,5.23
2022-11-28T01:56:07.168Z,5.22
2022-11-28T01:58:50.015Z,5.26
2022-11-28T02:01:30.755Z,5.25
2022-11-28T02:04:13.848Z,5.26
2022-11-28T02:06:55.148Z,5.27
2022-11-28T02:09:36.992Z,5.23
2022-11-28T02:12:20.376Z,5.26
2022-11-28T02:15:06.460Z,5.31
2022-11-28T02:17:49.887Z,5.34
2022-11-28T02:20:52.032Z,5.37
2022-11-28T02:23:35.904Z,5.38
2022-11-28T02:26:20.934Z,5.40
2022-11-28T02:29:12.755Z,5.37
2022-11-28T02:32:07.490Z,5.34
2022-11-28T02:34:52.094Z,5.31
2022-11-28T02:37:35.082Z,5.32
2022-11-28T02:40:37.811Z,5.34
2022-11-28T02:43:21.594Z,5.30
2022-11-28T02:46:03.250Z,5.30
2022-11-28T02:48:45.222Z,5.32
2022-11-28T02:51:27.349Z,5.35
2022-11-28T02:54:10.947Z,5.39
2022-11-28T02:56:52.499Z,5.43
2022-11-28T02:59:47.096Z,5.47
2022-11-28T03:02:28.989Z,5.53
2022-11-28T03:05:12.579Z,5.53
2022-11-28T03:07:57.987Z,5.51
2022-11-28T03:10:39.024Z,5.49
2022-11-28T03:13:19.783Z,5.50
2022-11-28T03:16:02.675Z,5.46
2022-11-28T03:18:42.919Z,5.42
2022-11-28T03:21:24.846Z,5.38
2022-11-28T03:24:06.119Z,5.35
2022-11-28T03:27:29.862Z,5.31
2022-11-28T03:30:12.620Z,5.30
2022-11-28T03:32:53.243Z,5.28
2022-11-28T03:35:33.794Z,5.25
2022-11-28T03:48:39.456Z,5.30
2022-11-28T03:51:21.075Z,5.28
2022-11-28T03:54:02.078Z,5.24
2022-11-28T03:56:46.433Z,5.25
2022-11-28T03:59:31.915Z,5.23
2022-11-28T04:02:16.828Z,5.22
2022-11-28T04:04:56.830Z,5.21
2022-11-28T04:07:37.961Z,5.26
2022-11-28T04:10:19.000Z,5.27
2022-11-28T04:13:00.357Z,5.24
2022-11-28T04:15:42.939Z,5.21
2022-11-28T04:18:25.188Z,5.18
2022-11-28T04:21:08.083Z,5.17
2022-11-28T04:23:50.460Z,5.15
2022-11-28T04:26:34.844Z,5.16
2022-11-28T04:29:16.884Z,5.12
2022-11-28T04:31:58.069Z,5.12
2022-11-28T04:45:07.535Z,5.14
2022-11-28T04:47:48.021Z,5.11
2022-11-28T04:50:29.591Z,5.07
2022-11-28T04:53:10.150Z,5.10
2022-11-28T04:55:48.982Z,5.09
2022-11-28T04:58:31.891Z,5.10
2022-11-28T05:01:16.058Z,5.11
2022-11-28T05:04:15.095Z,5.11
2022-11-28T05:07:03.330Z,5.07
2022-11-28T05:09:43.875Z,5.10
2022-11-28T05:12:23.666Z,5.13
2022-11-28T05:15:05.802Z,5.10
2022-11-28T05:17:47.053Z,5.09
2022-11-28T05:20:28.311Z,5.08
2022-11-28T05:23:09.274Z,5.10
2022-11-28T05:25:49.235Z,5.10
2022-11-28T05:28:30.507Z,5.13
2022-11-28T05:31:10.444Z,5.13
2022-11-28T05:33:51.740Z,5.12
2022-11-28T05:36:33.105Z,5.11
2022-11-28T05:39:12.560Z,5.09
2022-11-28T05:41:52.729Z,5.10
2022-11-28T05:44:32.837Z,5.11
2022-11-28T05:47:13.983Z,5.15
2022-11-28T05:49:55.435Z,5.14
2022-11-28T05:52:36.715Z,5.13
2022-11-28T05:55:16.778Z,5.13
2022-11-28T05:58:40.238Z,5.12
2022-11-28T06:01:24.515Z,5.12
2022-11-28T06:04:04.636Z,5.12
2022-11-28T06:06:46.070Z,5.16
2022-11-28T06:09:29.401Z,5.20
2022-11-28T06:12:10.419Z,5.19
2022-11-28T06:14:48.263Z,5.20
2022-11-28T06:17:28.375Z,5.19
2022-11-28T06:20:08.901Z,5.28
2022-11-28T06:22:49.626Z,5.31
2022-11-28T06:25:31.613Z,5.30
2022-11-28T06:28:12.452Z,5.28
2022-11-28T06:30:53.860Z,5.30
2022-11-28T06:33:33.711Z,5.23
2022-11-28T06:36:16.164Z,5.22
2022-11-28T06:38:56.848Z,5.24
2022-11-28T06:41:37.906Z,5.22
2022-11-28T06:44:17.715Z,5.20
2022-11-28T06:47:00.502Z,5.21
2022-11-28T06:49:41.745Z,5.25
2022-11-28T06:52:22.250Z,5.28
2022-11-28T06:55:01.400Z,5.23
2022-11-28T06:57:41.585Z,5.24
2022-11-28T07:00:23.066Z,5.26
2022-11-28T07:03:04.586Z,5.23
2022-11-28T07:05:45.709Z,5.24
2022-11-28T07:08:25.726Z,5.25
2022-11-28T07:11:11.249Z,5.25
2022-11-28T07:13:53.704Z,5.29
2022-11-28T07:16:36.592Z,5.28
2022-11-28T07:19:23.562Z,5.21
2022-11-28T07:22:04.780Z,5.29
2022-11-28T07:24:45.206Z,5.24
2022-11-28T07:27:27.031Z,5.23
2022-11-28T07:30:10.717Z,5.23
2022-11-28T07:32:49.178Z,5.28
2022-11-28T07:46:00.866Z,5.17
2022-11-28T07:48:43.814Z,5.18
2022-11-28T07:51:25.039Z,5.22
2022-11-28T07:54:06.369Z,5.22
2022-11-28T07:57:14.647Z,5.22
2022-11-28T07:59:55.011Z,5.22
2022-11-28T08:02:33.385Z,5.28
2022-11-28T08:05:14.642Z,5.26
2022-11-28T08:07:57.101Z,5.30
2022-11-28T08:10:37.514Z,5.31
2022-11-28T08:13:18.844Z,5.26
2022-11-28T08:15:58.731Z,5.31
2022-11-28T08:29:04.891Z,5.31
2022-11-28T08:31:46.169Z,5.36
2022-11-28T08:34:46.643Z,5.27
2022-11-28T08:37:28.742Z,5.34
2022-11-28T08:40:09.874Z,5.37
2022-11-28T08:42:51.828Z,5.32
2022-11-28T08:45:35.419Z,5.30
2022-11-28T08:48:20.266Z,5.33
2022-11-28T08:50:59.515Z,5.33
2022-11-28T08:53:37.739Z,5.33
2022-11-28T08:56:23.960Z,5.37
2022-11-28T08:59:04.127Z,5.40
2022-11-28T09:01:45.530Z,5.42
2022-11-28T09:04:26.912Z,5.43
2022-11-28T09:07:06.680Z,5.45
2022-11-28T09:09:46.591Z,5.43
2022-11-28T09:12:27.893Z,5.42
2022-11-28T09:25:32.589Z,5.55
2022-11-28T09:28:11.815Z,5.51
2022-11-28T09:30:50.089Z,5.57
2022-11-28T09:33:30.176Z,5.60
2022-11-28T09:36:10.592Z,5.59
2022-11-28T09:38:53.265Z,5.65
2022-11-28T09:41:38.129Z,5.65
2022-11-28T09:44:19.893Z,5.70
2022-11-28T09:46:59.215Z,5.69
2022-11-28T09:49:41.882Z,5.73
2022-11-28T09:52:27.888Z,5.71
2022-11-28T09:55:14.095Z,5.72
2022-11-28T09:57:54.605Z,5.68
2022-11-28T10:00:37.312Z,5.80
2022-11-28T10:03:25.836Z,5.78
2022-11-28T10:06:06.162Z,5.84
2022-11-28T10:08:48.448Z,5.88
2022-11-28T10:11:32.195Z,5.91
2022-11-28T10:14:16.995Z,5.92
2022-11-28T10:17:02.085Z,6.00
2022-11-28T10:19:54.149Z,5.99
2022-11-28T10:22:40.248Z,5.98
2022-11-28T10:25:23.669Z,5.95
2022-11-28T10:28:07.268Z,5.98
2022-11-28T10:30:48.895Z,5.88
2022-11-28T10:33:30.228Z,5.83
2022-11-28T10:36:14.399Z,5.83
2022-11-28T10:38:55.030Z,5.85
2022-11-28T10:41:37.520Z,5.78
2022-11-28T10:44:21.684Z,5.82
2022-11-28T10:47:04.239Z,5.85
2022-11-28T10:49:49.259Z,5.90
2022-11-28T10:52:31.467Z,5.98
2022-11-28T10:55:21.695Z,5.86
2022-11-28T10:58:02.603Z,5.83
2022-11-28T11:00:45.287Z,5.85
2022-11-28T11:03:27.394Z,5.89
2022-11-28T11:06:08.591Z,5.93
2022-11-28T11:08:47.827Z,5.90
2022-11-28T11:11:29.184Z,6.01
2022-11-28T11:14:24.271Z,6.09
2022-11-28T11:17:04.225Z,6.19
2022-11-28T11:19:46.569Z,6.18
2022-11-28T11:22:31.679Z,6.19
2022-11-28T11:25:16.110Z,6.24
2022-11-28T11:27:56.588Z,6.24
2022-11-28T11:31:00.746Z,6.29
2022-11-28T11:33:41.375Z,6.28
2022-11-28T11:36:22.340Z,6.36
2022-11-28T11:39:07.988Z,6.39
2022-11-28T11:41:49.206Z,6.44
2022-11-28T11:44:44.036Z,6.51
2022-11-28T11:47:40.315Z,6.51
2022-11-28T11:50:23.585Z,6.57
2022-11-28T11:53:06.958Z,6.62
2022-11-28T11:55:47.332Z,6.69
2022-11-28T11:58:32.723Z,6.63
2022-11-28T12:01:12.955Z,6.63
2022-11-28T12:03:57.578Z,6.62
2022-11-28T12:06:43.412Z,6.68
2022-11-28T12:09:24.313Z,6.64
2022-11-28T12:12:08.572Z,6.66
2022-11-28T12:14:49.432Z,6.68
2022-11-28T12:17:48.807Z,6.69
2022-11-28T12:20:36.081Z,6.63
2022-11-28T12:33:44.068Z,6.56
2022-11-28T12:36:29.300Z,6.50
2022-11-28T12:39:17.899Z,6.54
2022-11-28T12:42:06.176Z,6.60
2022-11-28T12:44:52.572Z,6.61
2022-11-28T12:47:36.443Z,6.67
2022-11-28T12:50:18.393Z,6.59
2022-11-28T12:53:02.020Z,6.66
2022-11-28T12:55:42.764Z,6.52
2022-11-28T12:58:44.824Z,6.62
2022-11-28T13:01:32.058Z,6.57
2022-11-28T13:04:14.026Z,6.56
2022-11-28T13:06:56.619Z,6.52
2022-11-28T13:09:37.674Z,6.62
2022-11-28T13:13:01.965Z,6.52
2022-11-28T13:15:44.440Z,6.54
2022-11-28T13:18:32.787Z,6.54
2022-11-28T13:21:19.110Z,6.49
2022-11-28T13:24:06.961Z,6.51
2022-11-28T13:26:48.957Z,6.58
2022-11-28T13:29:33.390Z,6.54
2022-11-28T13:32:18.251Z,6.56
2022-11-28T13:35:04.123Z,6.56
2022-11-28T13:40:48.687Z,6.58
2022-11-28T13:43:44.152Z,6.60
2022-11-28T13:46:24.357Z,6.60
2022-11-28T13:49:15.492Z,6.62
2022-11-28T13:52:10.210Z,6.62
2022-11-28T13:55:39.136Z,6.61
2022-11-28T13:58:23.051Z,6.68
2022-11-28T14:01:08.557Z,6.68
2022-11-28T14:03:49.274Z,6.50
2022-11-28T14:06:31.064Z,6.52
2022-11-28T14:09:19.805Z,6.58
2022-11-28T14:12:03.552Z,6.61
2022-11-28T14:14:50.379Z,6.52
2022-11-28T14:17:38.907Z,6.60
2022-11-28T14:20:21.997Z,6.61
2022-11-28T14:23:05.543Z,6.60
2022-11-28T14:25:50.479Z,6.60
2022-11-28T14:28:32.708Z,6.61
2022-11-28T14:31:24.883Z,6.59
2022-11-28T14:34:04.628Z,6.54
2022-11-28T14:36:49.059Z,6.47
2022-11-28T14:39:35.063Z,6.51
2022-11-28T14:45:41.621Z,6.50
2022-11-28T14:48:30.887Z,6.53
2022-11-28T14:51:14.403Z,6.52
2022-11-28T14:53:52.821Z,6.45
2022-11-28T14:56:36.651Z,6.45
2022-11-28T14:59:33.625Z,6.36
2022-11-28T15:02:44.083Z,6.34
2022-11-28T15:05:33.980Z,6.35
2022-11-28T15:08:26.801Z,6.26
2022-11-28T15:11:15.127Z,6.27
2022-11-28T15:14:09.376Z,6.22
2022-11-28T15:16:57.490Z,6.21
2022-11-28T15:19:40.552Z,6.23
2022-11-28T15:22:34.054Z,6.27
2022-11-28T15:25:22.285Z,6.27
2022-11-28T15:28:19.150Z,6.25
2022-11-28T15:31:01.687Z,6.21
2022-11-28T15:33:43.679Z,6.23
2022-11-28T15:36:26.875Z,6.22
2022-11-28T15:39:13.066Z,6.18
2022-11-28T15:41:54.224Z,6.19
2022-11-28T15:44:37.926Z,6.19
2022-11-28T15:47:20.203Z,6.15
2022-11-28T15:50:02.451Z,6.16
2022-11-28T15:52:54.512Z,6.12
2022-11-28T15:55:37.757Z,6.12
2022-11-28T15:58:21.490Z,6.11
2022-11-28T16:01:04.757Z,6.07
2022-11-28T16:03:46.669Z,6.05
2022-11-28T16:06:28.080Z,6.04
2022-11-28T16:09:11.243Z,6.02
2022-11-28T16:11:53.376Z,5.93
2022-11-28T16:14:34.096Z,5.94
2022-11-28T16:17:19.474Z,5.92
2022-11-28T16:20:41.738Z,5.88
2022-11-28T16:23:23.477Z,5.86
2022-11-28T16:26:23.717Z,5.87
2022-11-28T16:29:10.687Z,5.85
2022-11-28T16:31:51.955Z,5.82
2022-11-28T16:34:47.160Z,5.81
2022-11-28T16:37:27.933Z,5.82
2022-11-28T16:40:16.960Z,5.81
2022-11-28T16:43:02.877Z,5.81
2022-11-28T16:45:42.944Z,5.80
2022-11-28T16:48:27.006Z,5.80
2022-11-28T16:51:25.305Z,5.77
2022-11-28T16:54:27.930Z,5.68
2022-11-28T16:57:14.368Z,5.64
2022-11-28T16:59:54.801Z,5.64
2022-11-28T17:02:34.728Z,5.64
2022-11-28T17:05:16.267Z,5.64
2022-11-28T17:07:57.528Z,5.62
2022-11-28T17:10:38.850Z,5.60
2022-11-28T17:14:08.667Z,5.59
2022-11-28T17:16:51.877Z,5.57
2022-11-28T17:19:35.607Z,5.55
2022-11-28T17:22:17.849Z,5.54
2022-11-28T17:24:58.473Z,5.54
2022-11-28T17:27:40.039Z,5.46
2022-11-28T17:30:22.553Z,5.42
2022-11-28T17:33:22.977Z,5.39
2022-11-28T17:36:04.191Z,5.40
2022-11-28T17:38:47.465Z,5.35
2022-11-28T17:41:28.563Z,5.41
2022-11-28T17:44:13.345Z,5.38
2022-11-28T17:46:55.140Z,5.40
2022-11-28T17:49:36.044Z,5.44
2022-11-28T17:52:17.619Z,5.44
2022-11-28T17:55:20.671Z,5.42
2022-11-28T17:58:00.919Z,5.44
2022-11-28T18:00:42.360Z,5.44
2022-11-28T18:03:23.797Z,5.46
2022-11-28T18:06:05.690Z,5.47
2022-11-28T18:09:11.842Z,5.47
2022-11-28T18:11:51.625Z,5.49
2022-11-28T18:14:36.603Z,5.49
2022-11-28T18:17:19.602Z,5.49
2022-11-28T18:20:01.099Z,5.51
2022-11-28T18:22:43.356Z,5.52
2022-11-28T18:25:26.059Z,5.52
2022-11-28T18:28:20.958Z,5.50
2022-11-28T18:31:08.560Z,5.50
2022-11-28T18:33:49.520Z,5.53
2022-11-28T18:36:30.230Z,5.53
2022-11-28T18:39:34.007Z,5.54
2022-11-28T18:42:14.391Z,5.55
2022-11-28T18:44:54.203Z,5.54
2022-11-28T18:47:40.659Z,5.54
2022-11-28T18:50:21.875Z,5.56
2022-11-28T18:53:05.247Z,5.58
2022-11-28T18:55:46.399Z,5.57
2022-11-28T18:58:29.804Z,5.59
2022-11-28T19:01:11.648Z,5.61
2022-11-28T19:03:52.563Z,5.61
2022-11-28T19:06:34.457Z,5.64
2022-11-28T19:09:15.539Z,5.64
2022-11-28T19:11:56.262Z,5.63
2022-11-28T19:14:38.398Z,5.65
2022-11-28T19:17:19.270Z,5.66
2022-11-28T19:20:02.626Z,5.66
2022-11-28T19:22:43.470Z,5.67
2022-11-28T19:25:35.070Z,5.68
2022-11-28T19:28:14.950Z,5.67
2022-11-28T19:30:57.435Z,5.68
2022-11-28T19:33:37.759Z,5.69
2022-11-28T19:36:19.105Z,5.69
2022-11-28T19:39:00.845Z,5.72
2022-11-28T19:41:43.895Z,5.72
2022-11-28T19:44:28.942Z,5.73
2022-11-28T19:47:09.627Z,5.74
2022-11-28T19:49:50.929Z,5.74
2022-11-28T19:52:30.957Z,5.72
2022-11-28T19:55:12.245Z,5.69
2022-11-28T19:57:55.563Z,5.71
2022-11-28T20:00:36.725Z,5.69
2022-11-28T20:03:29.930Z,5.72
2022-11-28T20:06:11.651Z,5.73
2022-11-28T20:08:51.165Z,5.73
2022-11-28T20:11:33.764Z,5.75
2022-11-28T20:14:14.449Z,5.79
2022-11-28T20:16:55.254Z,5.78
2022-11-28T20:19:36.450Z,5.79
2022-11-28T20:22:18.138Z,5.82
2022-11-28T20:25:12.109Z,5.80
2022-11-28T20:27:54.188Z,5.81
2022-11-28T20:30:37.721Z,5.82
2022-11-28T20:33:20.591Z,5.82
2022-11-28T20:36:21.216Z,5.81
2022-11-28T20:39:02.320Z,5.78
2022-11-28T20:41:45.741Z,5.80
2022-11-28T20:44:27.435Z,5.80
2022-11-28T20:47:10.969Z,5.75
2022-11-28T20:49:51.071Z,5.78
2022-11-28T20:52:30.879Z,5.78
2022-11-28T20:55:11.011Z,5.80
2022-11-28T20:57:52.100Z,5.81
2022-11-28T21:00:43.735Z,5.81
2022-11-28T21:03:27.123Z,5.80
2022-11-28T21:06:08.359Z,5.82
2022-11-28T21:08:49.458Z,5.81
2022-11-28T21:11:55.848Z,5.80
2022-11-28T21:14:29.943Z,5.79
2022-11-28T21:17:07.769Z,5.80
2022-11-28T21:19:49.887Z,5.72
2022-11-28T21:22:29.003Z,5.75
2022-11-28T21:25:09.398Z,5.76
2022-11-28T21:27:50.538Z,5.77
2022-11-28T21:30:32.371Z,5.77
2022-11-28T21:33:13.754Z,5.77
2022-11-28T21:35:54.749Z,5.79
2022-11-28T21:38:35.150Z,5.80
2022-11-28T21:41:16.006Z,5.78
2022-11-28T21:43:55.790Z,5.78
2022-11-28T21:46:39.210Z,5.79
2022-11-28T21:49:20.213Z,5.75
2022-11-28T21:52:00.000Z,5.78
2022-11-28T21:54:41.385Z,5.79
2022-11-28T21:57:21.255Z,5.81
2022-11-28T22:00:03.315Z,5.83
2022-11-28T22:03:09.443Z,5.84
2022-11-28T22:05:53.541Z,5.83
2022-11-28T22:08:34.098Z,5.84
2022-11-28T22:11:15.455Z,5.84
2022-11-28T22:13:56.875Z,5.84
2022-11-28T22:16:36.671Z,5.84
2022-11-28T22:19:18.084Z,5.84
2022-11-28T22:21:59.479Z,5.84
2022-11-28T22:24:41.183Z,5.84
2022-11-28T22:27:22.368Z,5.83
2022-11-28T22:30:03.758Z,5.83
2022-11-28T22:32:43.428Z,5.79
2022-11-28T22:35:25.348Z,5.81
2022-11-28T22:38:08.640Z,5.80
2022-11-28T22:40:49.451Z,5.76
2022-11-28T22:43:30.720Z,5.79
2022-11-28T22:46:10.831Z,5.80
2022-11-28T22:48:52.124Z,5.82
2022-11-28T22:51:33.389Z,5.82
2022-11-28T22:54:14.789Z,5.81
2022-11-28T22:56:56.214Z,5.83
2022-11-28T22:59:39.603Z,5.82
2022-11-28T23:02:20.698Z,5.84
2022-11-28T23:05:02.039Z,5.83
2022-11-28T23:07:55.676Z,5.83
2022-11-28T23:10:38.833Z,5.78
2022-11-28T23:13:21.613Z,5.75
2022-11-28T23:16:10.181Z,5.79
2022-11-28T23:18:51.258Z,5.78
2022-11-28T23:21:32.385Z,5.80
2022-11-28T23:24:17.095Z,5.80
2022-11-28T23:27:01.410Z,5.83
2022-11-28T23:29:42.878Z,5.83
2022-11-28T23:32:23.854Z,5.82
2022-11-28T23:35:01.747Z,5.83
2022-11-28T23:38:08.615Z,5.81
2022-11-28T23:40:48.447Z,5.83
2022-11-28T23:43:29.854Z,5.83
2022-11-28T23:46:10.003Z,5.84
2022-11-28T23:48:51.100Z,5.83
2022-11-28T23:51:34.783Z,5.84
2022-11-28T23:54:17.542Z,5.82
2022-11-28T23:56:58.437Z,5.77
2022-11-28T23:59:40.297Z,5.80
